sensor_id;sensor_type;location;lat;lon;timestamp;P1;durP1;ratioP1;P2;durP2;ratioP2
20294;SDS011;10306;52.128;5.208;2023-05-02T00:00:35;24.10;;;12.47;;
20294;SDS011;10306;52.128;5.208;2023-05-02T00:03:01;20.00;;;12.33;;
20294;SDS011;10306;52.128;5.208;2023-05-02T00:05:27;21.73;;;13.17;;
20294;SDS011;10306;52.128;5.208;2023-05-02T00:07:53;22.53;;;12.90;;
20294;SDS011;10306;52.128;5.208;2023-05-02T00:10:19;27.63;;;12.57;;
20294;SDS011;10306;52.128;5.208;2023-05-02T00:12:45;21.67;;;12.20;;
20294;SDS011;10306;52.128;5.208;2023-05-02T00:15:11;26.10;;;13.43;;
20294;SDS011;10306;52.128;5.208;2023-05-02T00:17:39;21.57;;;12.73;;
20294;SDS011;10306;52.128;5.208;2023-05-02T00:20:06;23.40;;;13.60;;
20294;SDS011;10306;52.128;5.208;2023-05-02T00:22:33;21.47;;;12.23;;
20294;SDS011;10306;52.128;5.208;2023-05-02T00:24:59;21.40;;;12.60;;
20294;SDS011;10306;52.128;5.208;2023-05-02T00:27:25;26.13;;;12.30;;
20294;SDS011;10306;52.128;5.208;2023-05-02T00:29:54;18.30;;;11.97;;
20294;SDS011;10306;52.128;5.208;2023-05-02T00:32:21;17.87;;;10.67;;
20294;SDS011;10306;52.128;5.208;2023-05-02T00:34:47;20.73;;;10.43;;
20294;SDS011;10306;52.128;5.208;2023-05-02T00:37:13;15.80;;;10.10;;
20294;SDS011;10306;52.128;5.208;2023-05-02T00:39:39;11.83;;;9.43;;
20294;SDS011;10306;52.128;5.208;2023-05-02T00:42:05;16.03;;;8.57;;
20294;SDS011;10306;52.128;5.208;2023-05-02T00:44:31;11.73;;;9.20;;
20294;SDS011;10306;52.128;5.208;2023-05-02T00:46:57;10.73;;;8.43;;
20294;SDS011;10306;52.128;5.208;2023-05-02T00:49:25;9.10;;;7.27;;
20294;SDS011;10306;52.128;5.208;2023-05-02T00:51:52;15.83;;;7.93;;
20294;SDS011;10306;52.128;5.208;2023-05-02T00:54:18;13.13;;;8.57;;
20294;SDS011;10306;52.128;5.208;2023-05-02T00:56:44;13.00;;;7.13;;
20294;SDS011;10306;52.128;5.208;2023-05-02T00:59:11;10.33;;;6.50;;
20294;SDS011;10306;52.128;5.208;2023-05-02T01:02:25;10.20;;;6.57;;
20294;SDS011;10306;52.128;5.208;2023-05-02T01:12:20;8.63;;;6.10;;
20294;SDS011;10306;52.128;5.208;2023-05-02T01:14:52;7.23;;;4.90;;
20294;SDS011;10306;52.128;5.208;2023-05-02T01:17:28;6.30;;;3.87;;
20294;SDS011;10306;52.128;5.208;2023-05-02T01:20:01;5.87;;;4.30;;
20294;SDS011;10306;52.128;5.208;2023-05-02T01:22:28;4.20;;;3.80;;
20294;SDS011;10306;52.128;5.208;2023-05-02T01:25:17;9.30;;;4.20;;
20294;SDS011;10306;52.128;5.208;2023-05-02T01:27:52;9.33;;;3.87;;
20294;SDS011;10306;52.128;5.208;2023-05-02T01:30:21;7.80;;;3.40;;
20294;SDS011;10306;52.128;5.208;2023-05-02T01:32:47;4.47;;;3.40;;
20294;SDS011;10306;52.128;5.208;2023-05-02T01:35:15;3.97;;;3.10;;
20294;SDS011;10306;52.128;5.208;2023-05-02T01:37:42;4.80;;;3.10;;
20294;SDS011;10306;52.128;5.208;2023-05-02T01:40:09;6.37;;;3.23;;
20294;SDS011;10306;52.128;5.208;2023-05-02T01:42:36;3.53;;;3.20;;
20294;SDS011;10306;52.128;5.208;2023-05-02T01:45:04;8.93;;;3.30;;
20294;SDS011;10306;52.128;5.208;2023-05-02T01:47:32;5.00;;;3.07;;
20294;SDS011;10306;52.128;5.208;2023-05-02T01:49:59;2.90;;;2.67;;
20294;SDS011;10306;52.128;5.208;2023-05-02T01:52:25;4.17;;;2.73;;
20294;SDS011;10306;52.128;5.208;2023-05-02T01:54:52;8.53;;;3.10;;
20294;SDS011;10306;52.128;5.208;2023-05-02T01:57:18;7.27;;;2.80;;
20294;SDS011;10306;52.128;5.208;2023-05-02T01:59:44;7.13;;;3.10;;
20294;SDS011;10306;52.128;5.208;2023-05-02T02:02:12;5.77;;;2.20;;
20294;SDS011;10306;52.128;5.208;2023-05-02T02:04:39;2.83;;;2.47;;
20294;SDS011;10306;52.128;5.208;2023-05-02T02:07:05;2.40;;;2.20;;
20294;SDS011;10306;52.128;5.208;2023-05-02T02:09:32;3.37;;;2.13;;
20294;SDS011;10306;52.128;5.208;2023-05-02T02:12:01;6.23;;;2.10;;
20294;SDS011;10306;52.128;5.208;2023-05-02T02:14:34;4.53;;;2.20;;
20294;SDS011;10306;52.128;5.208;2023-05-02T02:17:01;2.00;;;1.80;;
20294;SDS011;10306;52.128;5.208;2023-05-02T02:19:30;3.17;;;1.70;;
20294;SDS011;10306;52.128;5.208;2023-05-02T02:21:57;2.70;;;1.73;;
20294;SDS011;10306;52.128;5.208;2023-05-02T02:24:23;4.10;;;1.90;;
20294;SDS011;10306;52.128;5.208;2023-05-02T02:26:50;5.73;;;1.60;;
20294;SDS011;10306;52.128;5.208;2023-05-02T02:29:16;2.10;;;1.30;;
20294;SDS011;10306;52.128;5.208;2023-05-02T02:31:42;3.37;;;2.23;;
20294;SDS011;10306;52.128;5.208;2023-05-02T02:34:08;4.20;;;1.27;;
20294;SDS011;10306;52.128;5.208;2023-05-02T02:36:37;2.83;;;1.37;;
20294;SDS011;10306;52.128;5.208;2023-05-02T02:41:42;3.53;;;1.50;;
20294;SDS011;10306;52.128;5.208;2023-05-02T02:44:21;1.60;;;1.30;;
20294;SDS011;10306;52.128;5.208;2023-05-02T02:46:59;4.67;;;1.50;;
20294;SDS011;10306;52.128;5.208;2023-05-02T02:49:31;4.53;;;1.60;;
20294;SDS011;10306;52.128;5.208;2023-05-02T02:52:10;6.63;;;1.70;;
20294;SDS011;10306;52.128;5.208;2023-05-02T02:54:50;3.77;;;1.50;;
20294;SDS011;10306;52.128;5.208;2023-05-02T02:59:48;3.37;;;1.40;;
20294;SDS011;10306;52.128;5.208;2023-05-02T03:02:16;6.60;;;1.87;;
20294;SDS011;10306;52.128;5.208;2023-05-02T03:04:43;5.10;;;1.67;;
20294;SDS011;10306;52.128;5.208;2023-05-02T03:07:10;1.97;;;1.20;;
20294;SDS011;10306;52.128;5.208;2023-05-02T03:09:42;1.37;;;1.37;;
20294;SDS011;10306;52.128;5.208;2023-05-02T03:12:08;4.43;;;1.53;;
20294;SDS011;10306;52.128;5.208;2023-05-02T03:14:35;3.73;;;1.93;;
20294;SDS011;10306;52.128;5.208;2023-05-02T03:17:01;2.40;;;1.53;;
20294;SDS011;10306;52.128;5.208;2023-05-02T03:19:27;5.00;;;1.63;;
20294;SDS011;10306;52.128;5.208;2023-05-02T03:21:53;3.70;;;1.50;;
20294;SDS011;10306;52.128;5.208;2023-05-02T03:24:19;4.53;;;1.50;;
20294;SDS011;10306;52.128;5.208;2023-05-02T03:26:45;6.70;;;1.70;;
20294;SDS011;10306;52.128;5.208;2023-05-02T03:29:12;3.30;;;2.07;;
20294;SDS011;10306;52.128;5.208;2023-05-02T03:31:38;3.30;;;1.53;;
20294;SDS011;10306;52.128;5.208;2023-05-02T03:34:04;2.57;;;1.47;;
20294;SDS011;10306;52.128;5.208;2023-05-02T03:36:30;4.27;;;1.57;;
20294;SDS011;10306;52.128;5.208;2023-05-02T03:38:56;5.83;;;1.70;;
20294;SDS011;10306;52.128;5.208;2023-05-02T03:41:22;3.53;;;1.40;;
20294;SDS011;10306;52.128;5.208;2023-05-02T03:43:51;2.20;;;1.40;;
20294;SDS011;10306;52.128;5.208;2023-05-02T03:46:17;4.50;;;1.60;;
20294;SDS011;10306;52.128;5.208;2023-05-02T03:48:43;3.20;;;1.60;;
20294;SDS011;10306;52.128;5.208;2023-05-02T03:51:10;2.63;;;1.40;;
20294;SDS011;10306;52.128;5.208;2023-05-02T03:53:36;3.23;;;1.33;;
20294;SDS011;10306;52.128;5.208;2023-05-02T03:56:02;3.70;;;1.20;;
20294;SDS011;10306;52.128;5.208;2023-05-02T03:58:28;5.30;;;1.30;;
20294;SDS011;10306;52.128;5.208;2023-05-02T04:00:54;1.20;;;1.07;;
20294;SDS011;10306;52.128;5.208;2023-05-02T04:03:20;2.90;;;1.30;;
20294;SDS011;10306;52.128;5.208;2023-05-02T04:05:46;4.37;;;1.43;;
20294;SDS011;10306;52.128;5.208;2023-05-02T04:08:12;5.77;;;1.47;;
20294;SDS011;10306;52.128;5.208;2023-05-02T04:10:38;3.60;;;1.20;;
20294;SDS011;10306;52.128;5.208;2023-05-02T04:13:04;2.77;;;1.37;;
20294;SDS011;10306;52.128;5.208;2023-05-02T04:15:30;3.40;;;1.30;;
20294;SDS011;10306;52.128;5.208;2023-05-02T04:17:56;4.73;;;2.23;;
20294;SDS011;10306;52.128;5.208;2023-05-02T04:20:23;2.20;;;1.47;;
20294;SDS011;10306;52.128;5.208;2023-05-02T04:22:49;4.23;;;1.60;;
20294;SDS011;10306;52.128;5.208;2023-05-02T04:25:15;4.47;;;1.53;;
20294;SDS011;10306;52.128;5.208;2023-05-02T04:27:41;4.60;;;1.47;;
20294;SDS011;10306;52.128;5.208;2023-05-02T04:30:07;6.30;;;1.70;;
20294;SDS011;10306;52.128;5.208;2023-05-02T04:32:34;4.93;;;1.80;;
20294;SDS011;10306;52.128;5.208;2023-05-02T04:35:00;2.40;;;1.60;;
20294;SDS011;10306;52.128;5.208;2023-05-02T04:37:26;4.10;;;1.40;;
20294;SDS011;10306;52.128;5.208;2023-05-02T04:39:52;3.67;;;1.50;;
20294;SDS011;10306;52.128;5.208;2023-05-02T04:42:18;7.60;;;2.20;;
20294;SDS011;10306;52.128;5.208;2023-05-02T04:44:44;6.33;;;1.90;;
20294;SDS011;10306;52.128;5.208;2023-05-02T04:47:10;2.20;;;1.70;;
20294;SDS011;10306;52.128;5.208;2023-05-02T04:49:36;3.37;;;1.70;;
20294;SDS011;10306;52.128;5.208;2023-05-02T04:52:02;2.93;;;1.80;;
20294;SDS011;10306;52.128;5.208;2023-05-02T04:54:28;5.27;;;2.23;;
20294;SDS011;10306;52.128;5.208;2023-05-02T04:56:54;5.70;;;2.27;;
20294;SDS011;10306;52.128;5.208;2023-05-02T04:59:20;3.77;;;2.13;;
20294;SDS011;10306;52.128;5.208;2023-05-02T05:01:46;7.60;;;2.53;;
20294;SDS011;10306;52.128;5.208;2023-05-02T05:04:12;4.93;;;2.20;;
20294;SDS011;10306;52.128;5.208;2023-05-02T05:06:38;3.37;;;1.80;;
20294;SDS011;10306;52.128;5.208;2023-05-02T05:09:04;3.57;;;2.13;;
20294;SDS011;10306;52.128;5.208;2023-05-02T05:11:31;7.63;;;2.40;;
20294;SDS011;10306;52.128;5.208;2023-05-02T05:13:57;5.03;;;1.83;;
20294;SDS011;10306;52.128;5.208;2023-05-02T05:16:22;3.60;;;2.07;;
20294;SDS011;10306;52.128;5.208;2023-05-02T05:18:48;4.50;;;2.00;;
20294;SDS011;10306;52.128;5.208;2023-05-02T05:21:15;4.83;;;2.23;;
20294;SDS011;10306;52.128;5.208;2023-05-02T05:23:41;5.77;;;1.87;;
20294;SDS011;10306;52.128;5.208;2023-05-02T05:28:35;8.10;;;2.10;;
20294;SDS011;10306;52.128;5.208;2023-05-02T05:31:05;5.63;;;1.90;;
20294;SDS011;10306;52.128;5.208;2023-05-02T05:33:31;4.23;;;1.90;;
20294;SDS011;10306;52.128;5.208;2023-05-02T05:36:07;7.07;;;2.27;;
20294;SDS011;10306;52.128;5.208;2023-05-02T05:38:33;4.17;;;1.97;;
20294;SDS011;10306;52.128;5.208;2023-05-02T05:40:59;4.20;;;2.13;;
20294;SDS011;10306;52.128;5.208;2023-05-02T05:43:25;4.73;;;2.40;;
20294;SDS011;10306;52.128;5.208;2023-05-02T05:45:52;6.20;;;2.10;;
20294;SDS011;10306;52.128;5.208;2023-05-02T05:48:18;2.80;;;1.70;;
20294;SDS011;10306;52.128;5.208;2023-05-02T05:50:44;6.47;;;1.97;;
20294;SDS011;10306;52.128;5.208;2023-05-02T05:53:10;5.73;;;2.27;;
20294;SDS011;10306;52.128;5.208;2023-05-02T05:55:36;6.23;;;2.03;;
20294;SDS011;10306;52.128;5.208;2023-05-02T05:58:02;7.87;;;2.13;;
20294;SDS011;10306;52.128;5.208;2023-05-02T06:00:29;6.60;;;2.13;;
20294;SDS011;10306;52.128;5.208;2023-05-02T06:02:55;5.60;;;2.00;;
20294;SDS011;10306;52.128;5.208;2023-05-02T06:05:21;4.17;;;2.20;;
20294;SDS011;10306;52.128;5.208;2023-05-02T06:07:47;5.43;;;2.23;;
20294;SDS011;10306;52.128;5.208;2023-05-02T06:10:12;4.90;;;1.83;;
20294;SDS011;10306;52.128;5.208;2023-05-02T06:12:38;6.83;;;1.80;;
20294;SDS011;10306;52.128;5.208;2023-05-02T06:15:04;3.43;;;1.90;;
20294;SDS011;10306;52.128;5.208;2023-05-02T06:17:31;8.37;;;1.93;;
20294;SDS011;10306;52.128;5.208;2023-05-02T06:19:56;8.23;;;2.00;;
20294;SDS011;10306;52.128;5.208;2023-05-02T06:22:22;4.30;;;2.37;;
20294;SDS011;10306;52.128;5.208;2023-05-02T06:24:48;3.63;;;1.57;;
20294;SDS011;10306;52.128;5.208;2023-05-02T06:27:14;2.47;;;1.57;;
20294;SDS011;10306;52.128;5.208;2023-05-02T06:29:40;4.43;;;1.67;;
20294;SDS011;10306;52.128;5.208;2023-05-02T06:32:06;3.83;;;1.80;;
20294;SDS011;10306;52.128;5.208;2023-05-02T06:34:33;6.37;;;1.97;;
20294;SDS011;10306;52.128;5.208;2023-05-02T06:36:59;5.17;;;1.77;;
20294;SDS011;10306;52.128;5.208;2023-05-02T06:39:25;3.20;;;1.60;;
20294;SDS011;10306;52.128;5.208;2023-05-02T06:41:55;5.50;;;1.73;;
20294;SDS011;10306;52.128;5.208;2023-05-02T06:44:22;6.67;;;1.80;;
20294;SDS011;10306;52.128;5.208;2023-05-02T06:46:48;1.47;;;1.23;;
20294;SDS011;10306;52.128;5.208;2023-05-02T06:49:14;4.30;;;1.70;;
20294;SDS011;10306;52.128;5.208;2023-05-02T06:51:40;4.00;;;1.53;;
20294;SDS011;10306;52.128;5.208;2023-05-02T06:54:06;2.50;;;1.50;;
20294;SDS011;10306;52.128;5.208;2023-05-02T06:56:32;2.67;;;1.53;;
20294;SDS011;10306;52.128;5.208;2023-05-02T06:58:58;1.87;;;1.60;;
20294;SDS011;10306;52.128;5.208;2023-05-02T07:01:24;4.00;;;1.67;;
20294;SDS011;10306;52.128;5.208;2023-05-02T07:03:51;4.13;;;1.57;;
20294;SDS011;10306;52.128;5.208;2023-05-02T07:06:17;2.53;;;1.53;;
20294;SDS011;10306;52.128;5.208;2023-05-02T07:08:43;6.87;;;1.80;;
20294;SDS011;10306;52.128;5.208;2023-05-02T07:11:09;5.03;;;1.53;;
20294;SDS011;10306;52.128;5.208;2023-05-02T07:13:35;2.70;;;1.40;;
20294;SDS011;10306;52.128;5.208;2023-05-02T07:16:00;3.07;;;1.40;;
20294;SDS011;10306;52.128;5.208;2023-05-02T07:18:26;4.77;;;2.10;;
20294;SDS011;10306;52.128;5.208;2023-05-02T07:20:52;7.13;;;2.17;;
20294;SDS011;10306;52.128;5.208;2023-05-02T07:23:19;2.03;;;1.47;;
20294;SDS011;10306;52.128;5.208;2023-05-02T07:25:46;7.27;;;1.80;;
20294;SDS011;10306;52.128;5.208;2023-05-02T07:28:12;5.53;;;1.43;;
20294;SDS011;10306;52.128;5.208;2023-05-02T07:30:38;2.97;;;1.83;;
20294;SDS011;10306;52.128;5.208;2023-05-02T07:33:04;2.53;;;1.57;;
20294;SDS011;10306;52.128;5.208;2023-05-02T07:35:30;2.37;;;1.43;;
20294;SDS011;10306;52.128;5.208;2023-05-02T07:37:56;6.83;;;1.67;;
20294;SDS011;10306;52.128;5.208;2023-05-02T07:40:22;4.10;;;1.50;;
20294;SDS011;10306;52.128;5.208;2023-05-02T07:42:48;3.97;;;1.73;;
20294;SDS011;10306;52.128;5.208;2023-05-02T07:45:14;2.87;;;1.40;;
20294;SDS011;10306;52.128;5.208;2023-05-02T07:47:40;4.80;;;1.73;;
20294;SDS011;10306;52.128;5.208;2023-05-02T07:50:06;1.97;;;1.57;;
20294;SDS011;10306;52.128;5.208;2023-05-02T07:52:33;4.40;;;1.77;;
20294;SDS011;10306;52.128;5.208;2023-05-02T07:54:59;3.87;;;1.63;;
20294;SDS011;10306;52.128;5.208;2023-05-02T07:57:25;7.97;;;1.90;;
20294;SDS011;10306;52.128;5.208;2023-05-02T07:59:51;2.80;;;1.30;;
20294;SDS011;10306;52.128;5.208;2023-05-02T08:02:17;3.60;;;1.67;;
20294;SDS011;10306;52.128;5.208;2023-05-02T08:04:45;5.03;;;1.60;;
20294;SDS011;10306;52.128;5.208;2023-05-02T08:07:11;5.30;;;1.60;;
20294;SDS011;10306;52.128;5.208;2023-05-02T08:09:37;4.70;;;1.63;;
20294;SDS011;10306;52.128;5.208;2023-05-02T08:12:03;2.07;;;1.43;;
20294;SDS011;10306;52.128;5.208;2023-05-02T08:14:30;3.07;;;1.53;;
20294;SDS011;10306;52.128;5.208;2023-05-02T08:16:56;3.03;;;1.80;;
20294;SDS011;10306;52.128;5.208;2023-05-02T08:19:22;3.07;;;1.53;;
20294;SDS011;10306;52.128;5.208;2023-05-02T08:21:48;3.67;;;1.43;;
20294;SDS011;10306;52.128;5.208;2023-05-02T08:24:14;3.10;;;1.40;;
20294;SDS011;10306;52.128;5.208;2023-05-02T08:26:40;2.03;;;1.40;;
20294;SDS011;10306;52.128;5.208;2023-05-02T08:29:06;2.43;;;1.40;;
20294;SDS011;10306;52.128;5.208;2023-05-02T08:31:35;4.57;;;2.13;;
20294;SDS011;10306;52.128;5.208;2023-05-02T08:34:01;3.03;;;1.50;;
20294;SDS011;10306;52.128;5.208;2023-05-02T08:36:27;5.53;;;1.67;;
20294;SDS011;10306;52.128;5.208;2023-05-02T08:38:53;3.03;;;1.50;;
20294;SDS011;10306;52.128;5.208;2023-05-02T08:41:21;1.70;;;1.20;;
20294;SDS011;10306;52.128;5.208;2023-05-02T08:43:47;3.23;;;1.43;;
20294;SDS011;10306;52.128;5.208;2023-05-02T08:46:13;2.13;;;1.53;;
20294;SDS011;10306;52.128;5.208;2023-05-02T08:48:40;1.20;;;1.10;;
20294;SDS011;10306;52.128;5.208;2023-05-02T08:51:10;1.53;;;1.20;;
20294;SDS011;10306;52.128;5.208;2023-05-02T08:53:37;3.50;;;1.87;;
20294;SDS011;10306;52.128;5.208;2023-05-02T08:56:03;2.57;;;1.00;;
20294;SDS011;10306;52.128;5.208;2023-05-02T08:58:29;6.87;;;1.50;;
20294;SDS011;10306;52.128;5.208;2023-05-02T09:00:55;1.37;;;1.27;;
20294;SDS011;10306;52.128;5.208;2023-05-02T09:05:59;4.13;;;1.23;;
20294;SDS011;10306;52.128;5.208;2023-05-02T09:08:28;6.10;;;1.37;;
20294;SDS011;10306;52.128;5.208;2023-05-02T09:10:54;1.90;;;1.30;;
20294;SDS011;10306;52.128;5.208;2023-05-02T09:13:27;2.77;;;0.97;;
20294;SDS011;10306;52.128;5.208;2023-05-02T09:15:57;1.27;;;1.00;;
20294;SDS011;10306;52.128;5.208;2023-05-02T09:18:24;4.00;;;1.30;;
20294;SDS011;10306;52.128;5.208;2023-05-02T09:20:51;1.20;;;1.10;;
20294;SDS011;10306;52.128;5.208;2023-05-02T09:23:17;2.07;;;1.10;;
20294;SDS011;10306;52.128;5.208;2023-05-02T09:25:43;2.43;;;1.40;;
20294;SDS011;10306;52.128;5.208;2023-05-02T09:28:09;2.07;;;1.23;;
20294;SDS011;10306;52.128;5.208;2023-05-02T09:30:35;3.43;;;1.73;;
20294;SDS011;10306;52.128;5.208;2023-05-02T09:33:01;1.50;;;1.40;;
20294;SDS011;10306;52.128;5.208;2023-05-02T09:35:27;1.63;;;1.43;;
20294;SDS011;10306;52.128;5.208;2023-05-02T09:37:56;2.50;;;1.40;;
20294;SDS011;10306;52.128;5.208;2023-05-02T09:40:23;3.83;;;1.40;;
20294;SDS011;10306;52.128;5.208;2023-05-02T09:42:49;1.43;;;1.30;;
20294;SDS011;10306;52.128;5.208;2023-05-02T09:45:22;3.50;;;1.63;;
20294;SDS011;10306;52.128;5.208;2023-05-02T09:47:49;4.60;;;1.53;;
20294;SDS011;10306;52.128;5.208;2023-05-02T09:50:31;2.70;;;1.10;;
20294;SDS011;10306;52.128;5.208;2023-05-02T09:53:05;1.57;;;1.13;;
20294;SDS011;10306;52.128;5.208;2023-05-02T09:55:31;4.37;;;1.70;;
20294;SDS011;10306;52.128;5.208;2023-05-02T09:57:57;3.00;;;1.67;;
20294;SDS011;10306;52.128;5.208;2023-05-02T10:00:39;1.80;;;1.40;;
20294;SDS011;10306;52.128;5.208;2023-05-02T10:03:06;1.33;;;1.23;;
20294;SDS011;10306;52.128;5.208;2023-05-02T10:05:33;3.97;;;1.20;;
20294;SDS011;10306;52.128;5.208;2023-05-02T10:08:02;2.73;;;1.47;;
20294;SDS011;10306;52.128;5.208;2023-05-02T10:10:29;2.97;;;1.40;;
20294;SDS011;10306;52.128;5.208;2023-05-02T10:12:55;2.00;;;1.50;;
20294;SDS011;10306;52.128;5.208;2023-05-02T10:15:21;2.33;;;2.13;;
20294;SDS011;10306;52.128;5.208;2023-05-02T10:17:48;4.20;;;1.70;;
20294;SDS011;10306;52.128;5.208;2023-05-02T10:20:21;1.67;;;1.53;;
20294;SDS011;10306;52.128;5.208;2023-05-02T10:22:48;3.70;;;1.50;;
20294;SDS011;10306;52.128;5.208;2023-05-02T10:25:15;1.53;;;1.43;;
20294;SDS011;10306;52.128;5.208;2023-05-02T10:27:41;1.40;;;1.30;;
20294;SDS011;10306;52.128;5.208;2023-05-02T10:30:07;1.60;;;1.50;;
20294;SDS011;10306;52.128;5.208;2023-05-02T10:32:34;1.67;;;1.20;;
20294;SDS011;10306;52.128;5.208;2023-05-02T10:35:04;2.33;;;1.40;;
20294;SDS011;10306;52.128;5.208;2023-05-02T10:37:32;3.70;;;1.40;;
20294;SDS011;10306;52.128;5.208;2023-05-02T10:39:59;4.47;;;1.70;;
20294;SDS011;10306;52.128;5.208;2023-05-02T10:42:25;5.43;;;1.47;;
20294;SDS011;10306;52.128;5.208;2023-05-02T10:44:51;4.03;;;1.50;;
20294;SDS011;10306;52.128;5.208;2023-05-02T10:47:24;3.53;;;1.70;;
20294;SDS011;10306;52.128;5.208;2023-05-02T10:49:54;4.27;;;1.90;;
20294;SDS011;10306;52.128;5.208;2023-05-02T10:55:12;1.97;;;1.70;;
20294;SDS011;10306;52.128;5.208;2023-05-02T11:00:24;3.33;;;1.60;;
20294;SDS011;10306;52.128;5.208;2023-05-02T11:02:50;2.10;;;1.70;;
20294;SDS011;10306;52.128;5.208;2023-05-02T11:05:16;5.23;;;1.50;;
20294;SDS011;10306;52.128;5.208;2023-05-02T11:07:42;3.70;;;1.70;;
20294;SDS011;10306;52.128;5.208;2023-05-02T11:15:13;3.60;;;1.60;;
20294;SDS011;10306;52.128;5.208;2023-05-02T11:17:57;7.03;;;1.93;;
20294;SDS011;10306;52.128;5.208;2023-05-02T11:20:25;2.30;;;1.80;;
20294;SDS011;10306;52.128;5.208;2023-05-02T11:22:51;3.67;;;1.80;;
20294;SDS011;10306;52.128;5.208;2023-05-02T11:25:33;3.40;;;1.63;;
20294;SDS011;10306;52.128;5.208;2023-05-02T11:28:00;2.33;;;1.77;;
20294;SDS011;10306;52.128;5.208;2023-05-02T11:33:21;2.77;;;1.60;;
20294;SDS011;10306;52.128;5.208;2023-05-02T11:35:47;3.00;;;1.97;;
20294;SDS011;10306;52.128;5.208;2023-05-02T11:38:14;2.60;;;1.70;;
20294;SDS011;10306;52.128;5.208;2023-05-02T11:40:48;2.73;;;1.70;;
20294;SDS011;10306;52.128;5.208;2023-05-02T11:43:16;5.40;;;1.70;;
20294;SDS011;10306;52.128;5.208;2023-05-02T11:45:42;3.90;;;2.80;;
20294;SDS011;10306;52.128;5.208;2023-05-02T11:48:09;3.23;;;2.37;;
20294;SDS011;10306;52.128;5.208;2023-05-02T11:50:52;4.73;;;2.23;;
20294;SDS011;10306;52.128;5.208;2023-05-02T11:53:20;3.23;;;1.90;;
20294;SDS011;10306;52.128;5.208;2023-05-02T11:55:47;5.47;;;2.17;;
20294;SDS011;10306;52.128;5.208;2023-05-02T11:58:14;5.60;;;2.00;;
20294;SDS011;10306;52.128;5.208;2023-05-02T12:00:41;4.50;;;1.77;;
20294;SDS011;10306;52.128;5.208;2023-05-02T12:03:17;7.27;;;2.00;;
20294;SDS011;10306;52.128;5.208;2023-05-02T12:05:43;4.57;;;1.90;;
20294;SDS011;10306;52.128;5.208;2023-05-02T12:08:16;3.97;;;2.50;;
20294;SDS011;10306;52.128;5.208;2023-05-02T12:10:43;2.57;;;2.20;;
20294;SDS011;10306;52.128;5.208;2023-05-02T12:13:10;3.07;;;1.83;;
20294;SDS011;10306;52.128;5.208;2023-05-02T12:15:36;4.07;;;1.93;;
20294;SDS011;10306;52.128;5.208;2023-05-02T12:18:02;2.33;;;1.90;;
20294;SDS011;10306;52.128;5.208;2023-05-02T12:20:28;4.90;;;2.67;;
20294;SDS011;10306;52.128;5.208;2023-05-02T12:22:54;1.73;;;1.63;;
20294;SDS011;10306;52.128;5.208;2023-05-02T12:25:21;2.40;;;1.90;;
20294;SDS011;10306;52.128;5.208;2023-05-02T12:28:02;5.47;;;2.40;;
20294;SDS011;10306;52.128;5.208;2023-05-02T12:30:28;3.13;;;1.90;;
20294;SDS011;10306;52.128;5.208;2023-05-02T12:33:03;2.73;;;2.03;;
20294;SDS011;10306;52.128;5.208;2023-05-02T12:35:31;3.73;;;1.90;;
20294;SDS011;10306;52.128;5.208;2023-05-02T12:38:07;3.72;;;1.90;;
20294;SDS011;10306;52.128;5.208;2023-05-02T12:40:33;3.63;;;2.20;;
20294;SDS011;10306;52.128;5.208;2023-05-02T12:43:00;2.35;;;2.20;;
20294;SDS011;10306;52.128;5.208;2023-05-02T12:45:28;2.08;;;1.90;;
20294;SDS011;10306;52.128;5.208;2023-05-02T12:47:58;2.17;;;2.08;;
20294;SDS011;10306;52.128;5.208;2023-05-02T12:50:37;2.75;;;2.25;;
20294;SDS011;10306;52.128;5.208;2023-05-02T12:53:03;3.30;;;2.17;;
20294;SDS011;10306;52.128;5.208;2023-05-02T12:55:30;2.08;;;1.83;;
20294;SDS011;10306;52.128;5.208;2023-05-02T12:58:02;4.07;;;2.25;;
20294;SDS011;10306;52.128;5.208;2023-05-02T13:00:32;4.35;;;2.65;;
20294;SDS011;10306;52.128;5.208;2023-05-02T13:02:59;2.30;;;1.73;;
20294;SDS011;10306;52.128;5.208;2023-05-02T13:05:25;3.92;;;1.83;;
20294;SDS011;10306;52.128;5.208;2023-05-02T13:07:51;2.17;;;1.80;;
20294;SDS011;10306;52.128;5.208;2023-05-02T13:10:17;2.58;;;2.00;;
20294;SDS011;10306;52.128;5.208;2023-05-02T13:12:44;2.10;;;1.80;;
20294;SDS011;10306;52.128;5.208;2023-05-02T13:15:10;3.20;;;1.95;;
20294;SDS011;10306;52.128;5.208;2023-05-02T13:17:37;2.22;;;1.80;;
20294;SDS011;10306;52.128;5.208;2023-05-02T13:20:03;4.70;;;2.80;;
20294;SDS011;10306;52.128;5.208;2023-05-02T13:22:29;5.25;;;2.00;;
20294;SDS011;10306;52.128;5.208;2023-05-02T13:24:55;2.33;;;2.03;;
20294;SDS011;10306;52.128;5.208;2023-05-02T13:27:21;1.92;;;1.83;;
20294;SDS011;10306;52.128;5.208;2023-05-02T13:29:48;2.00;;;1.90;;
20294;SDS011;10306;52.128;5.208;2023-05-02T13:32:14;3.50;;;2.38;;
20294;SDS011;10306;52.128;5.208;2023-05-02T13:34:40;3.08;;;2.13;;
20294;SDS011;10306;52.128;5.208;2023-05-02T13:37:06;2.53;;;1.70;;
20294;SDS011;10306;52.128;5.208;2023-05-02T13:39:32;1.70;;;1.60;;
20294;SDS011;10306;52.128;5.208;2023-05-02T13:41:59;3.03;;;1.88;;
20294;SDS011;10306;52.128;5.208;2023-05-02T13:44:27;3.65;;;2.15;;
20294;SDS011;10306;52.128;5.208;2023-05-02T13:46:53;3.30;;;1.90;;
20294;SDS011;10306;52.128;5.208;2023-05-02T13:49:19;3.00;;;1.70;;
20294;SDS011;10306;52.128;5.208;2023-05-02T13:51:45;3.25;;;2.17;;
20294;SDS011;10306;52.128;5.208;2023-05-02T13:54:11;3.67;;;2.00;;
20294;SDS011;10306;52.128;5.208;2023-05-02T13:56:38;1.73;;;1.60;;
20294;SDS011;10306;52.128;5.208;2023-05-02T13:59:04;1.63;;;1.52;;
20294;SDS011;10306;52.128;5.208;2023-05-02T14:01:30;5.07;;;1.90;;
20294;SDS011;10306;52.128;5.208;2023-05-02T14:03:56;3.33;;;2.00;;
20294;SDS011;10306;52.128;5.208;2023-05-02T14:06:22;3.42;;;2.00;;
20294;SDS011;10306;52.128;5.208;2023-05-02T14:08:48;1.83;;;1.60;;
20294;SDS011;10306;52.128;5.208;2023-05-02T14:11:17;1.52;;;1.42;;
20294;SDS011;10306;52.128;5.208;2023-05-02T14:13:43;3.08;;;1.80;;
20294;SDS011;10306;52.128;5.208;2023-05-02T14:16:09;1.90;;;1.52;;
20294;SDS011;10306;52.128;5.208;2023-05-02T14:18:35;3.25;;;1.45;;
20294;SDS011;10306;52.128;5.208;2023-05-02T14:21:01;3.45;;;2.17;;
20294;SDS011;10306;52.128;5.208;2023-05-02T14:23:28;4.85;;;1.52;;
20294;SDS011;10306;52.128;5.208;2023-05-02T14:25:54;1.70;;;1.60;;
20294;SDS011;10306;52.128;5.208;2023-05-02T14:28:20;1.50;;;1.40;;
20294;SDS011;10306;52.128;5.208;2023-05-02T14:30:47;1.67;;;1.58;;
20294;SDS011;10306;52.128;5.208;2023-05-02T14:33:13;2.55;;;1.60;;
20294;SDS011;10306;52.128;5.208;2023-05-02T14:35:39;2.50;;;1.48;;
20294;SDS011;10306;52.128;5.208;2023-05-02T14:38:05;1.48;;;1.38;;
20294;SDS011;10306;52.128;5.208;2023-05-02T14:40:31;4.05;;;1.50;;
20294;SDS011;10306;52.128;5.208;2023-05-02T14:42:57;2.42;;;1.63;;
20294;SDS011;10306;52.128;5.208;2023-05-02T14:45:23;1.60;;;1.50;;
20294;SDS011;10306;52.128;5.208;2023-05-02T14:47:49;1.73;;;1.63;;
20294;SDS011;10306;52.128;5.208;2023-05-02T14:50:15;2.90;;;1.95;;
20294;SDS011;10306;52.128;5.208;2023-05-02T14:52:41;1.90;;;1.80;;
20294;SDS011;10306;52.128;5.208;2023-05-02T14:55:10;2.85;;;1.55;;
20294;SDS011;10306;52.128;5.208;2023-05-02T14:57:36;3.67;;;1.60;;
20294;SDS011;10306;52.128;5.208;2023-05-02T15:00:02;2.70;;;1.70;;
20294;SDS011;10306;52.128;5.208;2023-05-02T15:02:28;3.65;;;1.50;;
20294;SDS011;10306;52.128;5.208;2023-05-02T15:04:54;2.30;;;1.45;;
20294;SDS011;10306;52.128;5.208;2023-05-02T15:07:20;4.30;;;2.03;;
20294;SDS011;10306;52.128;5.208;2023-05-02T15:09:46;2.65;;;1.60;;
20294;SDS011;10306;52.128;5.208;2023-05-02T15:12:12;3.10;;;1.70;;
20294;SDS011;10306;52.128;5.208;2023-05-02T15:14:38;3.67;;;1.80;;
20294;SDS011;10306;52.128;5.208;2023-05-02T15:17:04;2.80;;;1.60;;